sensor_id;sensor_type;location;lat;lon;timestamp;pressure;altitude;pressure_sealevel;temperature;humidity
71573;BME280;59408;51.032;9.410;2023-02-18T00:01:13;99519.97;;;8.52;98.96
71573;BME280;59408;51.032;9.410;2023-02-18T00:03:40;99530.84;;;8.52;98.77
71573;BME280;59408;51.032;9.410;2023-02-18T00:06:11;99537.09;;;8.52;98.11
71573;BME280;59408;51.032;9.410;2023-02-18T00:08:38;99533.56;;;8.52;98.17
71573;BME280;59408;51.032;9.410;2023-02-18T00:11:05;99530.38;;;8.58;97.22
71573;BME280;59408;51.032;9.410;2023-02-18T00:13:33;99529.28;;;8.59;97.15
71573;BME280;59408;51.032;9.410;2023-02-18T00:16:01;99522.69;;;8.52;97.78
71573;BME280;59408;51.032;9.410;2023-02-18T00:18:28;99539.03;;;8.60;97.06
71573;BME280;59408;51.032;9.410;2023-02-18T00:20:54;99534.09;;;8.62;97.06
71573;BME280;59408;51.032;9.410;2023-02-18T00:23:21;99538.84;;;8.57;97.54
71573;BME280;59408;51.032;9.410;2023-02-18T00:25:47;99539.34;;;8.59;97.08
71573;BME280;59408;51.032;9.410;2023-02-18T00:28:14;99543.50;;;8.56;96.94
71573;BME280;59408;51.032;9.410;2023-02-18T00:30:42;99537.44;;;8.59;96.96
71573;BME280;59408;51.032;9.410;2023-02-18T00:33:09;99533.75;;;8.55;97.26
71573;BME280;59408;51.032;9.410;2023-02-18T00:35:36;99540.00;;;8.56;97.32
71573;BME280;59408;51.032;9.410;2023-02-18T00:38:02;99527.97;;;8.57;97.22
71573;BME280;59408;51.032;9.410;2023-02-18T00:40:29;99529.59;;;8.58;97.04
71573;BME280;59408;51.032;9.410;2023-02-18T00:42:55;99525.91;;;8.54;97.52
71573;BME280;59408;51.032;9.410;2023-02-18T00:45:22;99527.13;;;8.48;97.92
71573;BME280;59408;51.032;9.410;2023-02-18T00:47:50;99531.00;;;8.47;98.62
71573;BME280;59408;51.032;9.410;2023-02-18T00:50:17;99532.22;;;8.41;99.07
71573;BME280;59408;51.032;9.410;2023-02-18T00:52:44;99527.91;;;8.39;99.01
71573;BME280;59408;51.032;9.410;2023-02-18T00:55:10;99525.97;;;8.40;98.79
71573;BME280;59408;51.032;9.410;2023-02-18T00:57:37;99534.44;;;8.38;98.91
71573;BME280;59408;51.032;9.410;2023-02-18T01:00:05;99528.84;;;8.35;98.89
71573;BME280;59408;51.032;9.410;2023-02-18T01:02:32;99528.72;;;8.40;98.93
71573;BME280;59408;51.032;9.410;2023-02-18T01:05:00;99522.00;;;8.37;99.27
71573;BME280;59408;51.032;9.410;2023-02-18T01:07:26;99531.56;;;8.35;99.43
71573;BME280;59408;51.032;9.410;2023-02-18T01:09:53;99523.41;;;8.35;99.99
71573;BME280;59408;51.032;9.410;2023-02-18T01:12:19;99538.91;;;8.34;100.00
71573;BME280;59408;51.032;9.410;2023-02-18T01:14:46;99541.03;;;8.37;100.00
71573;BME280;59408;51.032;9.410;2023-02-18T01:17:13;99538.22;;;8.29;100.00
71573;BME280;59408;51.032;9.410;2023-02-18T01:19:39;99540.47;;;8.27;100.00
71573;BME280;59408;51.032;9.410;2023-02-18T01:22:07;99537.88;;;8.22;100.00
71573;BME280;59408;51.032;9.410;2023-02-18T01:24:34;99545.22;;;8.21;100.00
71573;BME280;59408;51.032;9.410;2023-02-18T01:27:01;99550.97;;;8.20;100.00
71573;BME280;59408;51.032;9.410;2023-02-18T01:29:27;99553.06;;;8.23;100.00
71573;BME280;59408;51.032;9.410;2023-02-18T01:31:54;99557.34;;;8.15;100.00
71573;BME280;59408;51.032;9.410;2023-02-18T01:34:21;99538.78;;;8.09;100.00
71573;BME280;59408;51.032;9.410;2023-02-18T01:36:47;99543.19;;;8.05;100.00
71573;BME280;59408;51.032;9.410;2023-02-18T01:39:15;99550.56;;;8.04;100.00
71573;BME280;59408;51.032;9.410;2023-02-18T01:41:42;99537.41;;;7.97;100.00
71573;BME280;59408;51.032;9.410;2023-02-18T01:44:14;99534.09;;;8.00;100.00
71573;BME280;59408;51.032;9.410;2023-02-18T01:46:41;99529.88;;;7.94;100.00
71573;BME280;59408;51.032;9.410;2023-02-18T01:49:09;99531.47;;;7.95;100.00
71573;BME280;59408;51.032;9.410;2023-02-18T01:51:40;99519.81;;;7.95;100.00
71573;BME280;59408;51.032;9.410;2023-02-18T01:54:11;99527.16;;;7.94;100.00
71573;BME280;59408;51.032;9.410;2023-02-18T01:56:44;99531.97;;;7.97;100.00
71573;BME280;59408;51.032;9.410;2023-02-18T01:59:17;99526.75;;;8.01;100.00
71573;BME280;59408;51.032;9.410;2023-02-18T02:01:46;99536.59;;;7.97;100.00
71573;BME280;59408;51.032;9.410;2023-02-18T02:04:13;99540.44;;;7.96;100.00
71573;BME280;59408;51.032;9.410;2023-02-18T02:06:39;99536.91;;;7.95;100.00
71573;BME280;59408;51.032;9.410;2023-02-18T02:09:09;99530.16;;;7.93;100.00
71573;BME280;59408;51.032;9.410;2023-02-18T02:11:59;99518.84;;;7.91;100.00
71573;BME280;59408;51.032;9.410;2023-02-18T02:14:39;99518.50;;;7.92;100.00
71573;BME280;59408;51.032;9.410;2023-02-18T02:17:12;99520.44;;;7.92;100.00
71573;BME280;59408;51.032;9.410;2023-02-18T02:20:16;99521.09;;;7.97;100.00
71573;BME280;59408;51.032;9.410;2023-02-18T02:29:42;99521.56;;;7.91;100.00
71573;BME280;59408;51.032;9.410;2023-02-18T02:32:20;99516.72;;;7.88;100.00
71573;BME280;59408;51.032;9.410;2023-02-18T02:34:54;99510.78;;;7.86;100.00
71573;BME280;59408;51.032;9.410;2023-02-18T02:37:27;99523.06;;;7.83;100.00
71573;BME280;59408;51.032;9.410;2023-02-18T02:40:06;99505.66;;;7.84;100.00
71573;BME280;59408;51.032;9.410;2023-02-18T02:42:44;99513.00;;;7.84;100.00
71573;BME280;59408;51.032;9.410;2023-02-18T02:45:17;99505.19;;;7.82;100.00
71573;BME280;59408;51.032;9.410;2023-02-18T02:47:51;99502.16;;;7.84;100.00
71573;BME280;59408;51.032;9.410;2023-02-18T02:50:27;99501.97;;;7.80;100.00
71573;BME280;59408;51.032;9.410;2023-02-18T02:52:58;99507.72;;;7.79;100.00
71573;BME280;59408;51.032;9.410;2023-02-18T02:55:27;99504.41;;;7.82;100.00
71573;BME280;59408;51.032;9.410;2023-02-18T02:57:55;99504.19;;;7.78;100.00
71573;BME280;59408;51.032;9.410;2023-02-18T03:00:26;99506.72;;;7.75;100.00
71573;BME280;59408;51.032;9.410;2023-02-18T03:03:16;99507.06;;;7.73;100.00
71573;BME280;59408;51.032;9.410;2023-02-18T03:05:58;99511.34;;;7.74;100.00
71573;BME280;59408;51.032;9.410;2023-02-18T03:08:38;99513.75;;;7.76;100.00
71573;BME280;59408;51.032;9.410;2023-02-18T03:11:08;99511.53;;;7.78;100.00
71573;BME280;59408;51.032;9.410;2023-02-18T03:13:50;99496.34;;;7.77;100.00
71573;BME280;59408;51.032;9.410;2023-02-18T03:16:25;99496.06;;;7.78;100.00
71573;BME280;59408;51.032;9.410;2023-02-18T03:18:58;99494.94;;;7.79;100.00
71573;BME280;59408;51.032;9.410;2023-02-18T03:21:31;99478.66;;;7.79;100.00
71573;BME280;59408;51.032;9.410;2023-02-18T03:24:01;99482.97;;;7.80;100.00
71573;BME280;59408;51.032;9.410;2023-02-18T03:26:30;99482.97;;;7.80;100.00
71573;BME280;59408;51.032;9.410;2023-02-18T03:29:02;99487.59;;;7.80;100.00
71573;BME280;59408;51.032;9.410;2023-02-18T03:31:31;99488.09;;;7.82;100.00
71573;BME280;59408;51.032;9.410;2023-02-18T03:34:02;99493.19;;;7.83;100.00
71573;BME280;59408;51.032;9.410;2023-02-18T03:36:35;99495.13;;;7.83;100.00
71573;BME280;59408;51.032;9.410;2023-02-18T03:39:04;99494.34;;;7.82;100.00
71573;BME280;59408;51.032;9.410;2023-02-18T03:41:32;99490.97;;;7.85;100.00
71573;BME280;59408;51.032;9.410;2023-02-18T03:44:01;99486.84;;;7.88;100.00
71573;BME280;59408;51.032;9.410;2023-02-18T03:46:30;99478.50;;;7.84;100.00
71573;BME280;59408;51.032;9.410;2023-02-18T03:48:57;99463.97;;;7.80;100.00
71573;BME280;59408;51.032;9.410;2023-02-18T03:51:24;99467.97;;;7.83;100.00
71573;BME280;59408;51.032;9.410;2023-02-18T03:53:52;99466.03;;;7.83;100.00
71573;BME280;59408;51.032;9.410;2023-02-18T03:56:20;99461.41;;;7.84;100.00
71573;BME280;59408;51.032;9.410;2023-02-18T03:58:46;99467.34;;;7.86;100.00
71573;BME280;59408;51.032;9.410;2023-02-18T04:01:13;99457.72;;;7.80;100.00
71573;BME280;59408;51.032;9.410;2023-02-18T04:03:40;99454.06;;;7.84;100.00
71573;BME280;59408;51.032;9.410;2023-02-18T04:06:07;99448.81;;;7.88;100.00
71573;BME280;59408;51.032;9.410;2023-02-18T04:08:34;99437.66;;;7.89;100.00
71573;BME280;59408;51.032;9.410;2023-02-18T04:11:02;99437.34;;;7.91;100.00
71573;BME280;59408;51.032;9.410;2023-02-18T04:13:30;99432.09;;;7.94;100.00
71573;BME280;59408;51.032;9.410;2023-02-18T04:15:57;99418.50;;;7.94;100.00
71573;BME280;59408;51.032;9.410;2023-02-18T04:18:23;99428.56;;;7.94;100.00
71573;BME280;59408;51.032;9.410;2023-02-18T04:20:51;99425.53;;;7.95;100.00
71573;BME280;59408;51.032;9.410;2023-02-18T04:23:17;99430.66;;;7.97;100.00
71573;BME280;59408;51.032;9.410;2023-02-18T04:25:44;99418.00;;;7.92;100.00
71573;BME280;59408;51.032;9.410;2023-02-18T04:28:13;99421.06;;;7.91;100.00
71573;BME280;59408;51.032;9.410;2023-02-18T04:30:40;99415.78;;;7.94;100.00
71573;BME280;59408;51.032;9.410;2023-02-18T04:33:07;99419.50;;;7.98;100.00
71573;BME280;59408;51.032;9.410;2023-02-18T04:35:34;99426.53;;;7.99;100.00
71573;BME280;59408;51.032;9.410;2023-02-18T04:38:01;99416.78;;;7.98;100.00
71573;BME280;59408;51.032;9.410;2023-02-18T04:40:28;99423.97;;;8.03;100.00
71573;BME280;59408;51.032;9.410;2023-02-18T04:42:55;99403.22;;;8.07;100.00
71573;BME280;59408;51.032;9.410;2023-02-18T04:45:23;99408.78;;;8.02;100.00
71573;BME280;59408;51.032;9.410;2023-02-18T04:47:50;99409.44;;;7.99;100.00
71573;BME280;59408;51.032;9.410;2023-02-18T04:50:17;99406.41;;;8.00;100.00
71573;BME280;59408;51.032;9.410;2023-02-18T04:52:43;99406.09;;;8.11;100.00
71573;BME280;59408;51.032;9.410;2023-02-18T04:55:10;99398.28;;;8.09;100.00
71573;BME280;59408;51.032;9.410;2023-02-18T04:57:37;99387.53;;;8.04;100.00
71573;BME280;59408;51.032;9.410;2023-02-18T05:00:05;99395.56;;;8.09;100.00
71573;BME280;59408;51.032;9.410;2023-02-18T05:02:33;99382.00;;;8.09;100.00
71573;BME280;59408;51.032;9.410;2023-02-18T05:05:00;99398.94;;;8.15;100.00
71573;BME280;59408;51.032;9.410;2023-02-18T05:07:27;99395.75;;;8.21;100.00
71573;BME280;59408;51.032;9.410;2023-02-18T05:09:53;99394.03;;;8.25;100.00
71573;BME280;59408;51.032;9.410;2023-02-18T05:12:20;99392.25;;;8.21;100.00
71573;BME280;59408;51.032;9.410;2023-02-18T05:14:46;99392.59;;;8.19;100.00
71573;BME280;59408;51.032;9.410;2023-02-18T05:17:13;99395.13;;;8.16;100.00
71573;BME280;59408;51.032;9.410;2023-02-18T05:19:41;99396.22;;;8.15;100.00
71573;BME280;59408;51.032;9.410;2023-02-18T05:22:08;99392.88;;;8.09;100.00
71573;BME280;59408;51.032;9.410;2023-02-18T05:24:34;99385.94;;;8.03;100.00
71573;BME280;59408;51.032;9.410;2023-02-18T05:27:01;99400.47;;;7.98;100.00
71573;BME280;59408;51.032;9.410;2023-02-18T05:29:27;99388.78;;;7.89;100.00
71573;BME280;59408;51.032;9.410;2023-02-18T05:31:54;99377.72;;;7.86;100.00
71573;BME280;59408;51.032;9.410;2023-02-18T05:34:21;99373.53;;;7.80;100.00
71573;BME280;59408;51.032;9.410;2023-02-18T05:36:49;99363.75;;;7.70;100.00
71573;BME280;59408;51.032;9.410;2023-02-18T05:39:15;99371.53;;;7.63;100.00
71573;BME280;59408;51.032;9.410;2023-02-18T05:41:42;99364.50;;;7.62;100.00
71573;BME280;59408;51.032;9.410;2023-02-18T05:44:09;99366.88;;;7.55;100.00
71573;BME280;59408;51.032;9.410;2023-02-18T05:46:35;99356.47;;;7.57;100.00
71573;BME280;59408;51.032;9.410;2023-02-18T05:49:02;99353.91;;;7.52;100.00
71573;BME280;59408;51.032;9.410;2023-02-18T05:51:28;99356.00;;;7.55;100.00
71573;BME280;59408;51.032;9.410;2023-02-18T05:53:56;99351.19;;;7.52;100.00
71573;BME280;59408;51.032;9.410;2023-02-18T05:56:23;99347.38;;;7.53;100.00
71573;BME280;59408;51.032;9.410;2023-02-18T05:58:50;99351.38;;;7.55;100.00
71573;BME280;59408;51.032;9.410;2023-02-18T06:01:16;99345.00;;;7.60;100.00
71573;BME280;59408;51.032;9.410;2023-02-18T06:03:43;99338.97;;;7.63;100.00
71573;BME280;59408;51.032;9.410;2023-02-18T06:06:10;99346.47;;;7.66;100.00
71573;BME280;59408;51.032;9.410;2023-02-18T06:08:37;99336.59;;;7.70;100.00
71573;BME280;59408;51.032;9.410;2023-02-18T06:11:05;99339.81;;;7.72;100.00
71573;BME280;59408;51.032;9.410;2023-02-18T06:13:32;99333.59;;;7.72;100.00
71573;BME280;59408;51.032;9.410;2023-02-18T06:15:58;99337.56;;;7.74;100.00
71573;BME280;59408;51.032;9.410;2023-02-18T06:18:25;99328.81;;;7.77;100.00
71573;BME280;59408;51.032;9.410;2023-02-18T06:20:52;99316.66;;;7.75;100.00
71573;BME280;59408;51.032;9.410;2023-02-18T06:23:18;99309.78;;;7.77;100.00
71573;BME280;59408;51.032;9.410;2023-02-18T06:25:47;99317.78;;;7.74;100.00
71573;BME280;59408;51.032;9.410;2023-02-18T06:28:16;99315.38;;;7.72;100.00
71573;BME280;59408;51.032;9.410;2023-02-18T06:30:43;99318.91;;;7.73;100.00
71573;BME280;59408;51.032;9.410;2023-02-18T06:33:10;99317.44;;;7.75;100.00
71573;BME280;59408;51.032;9.410;2023-02-18T06:35:37;99315.53;;;7.76;100.00
71573;BME280;59408;51.032;9.410;2023-02-18T06:38:03;99309.16;;;7.72;100.00
71573;BME280;59408;51.032;9.410;2023-02-18T06:40:30;99297.47;;;7.71;100.00
71573;BME280;59408;51.032;9.410;2023-02-18T06:42:57;99306.44;;;7.72;100.00
71573;BME280;59408;51.032;9.410;2023-02-18T06:45:25;99289.16;;;7.68;100.00
71573;BME280;59408;51.032;9.410;2023-02-18T06:47:51;99287.91;;;7.74;100.00
71573;BME280;59408;51.032;9.410;2023-02-18T06:50:18;99308.03;;;7.73;100.00
71573;BME280;59408;51.032;9.410;2023-02-18T06:52:45;99298.78;;;7.74;100.00
71573;BME280;59408;51.032;9.410;2023-02-18T06:55:11;99297.16;;;7.73;100.00
71573;BME280;59408;51.032;9.410;2023-02-18T06:57:38;99289.50;;;7.75;100.00
71573;BME280;59408;51.032;9.410;2023-02-18T07:00:06;99290.63;;;7.74;100.00
71573;BME280;59408;51.032;9.410;2023-02-18T07:02:35;99278.81;;;7.78;100.00
71573;BME280;59408;51.032;9.410;2023-02-18T07:05:02;99289.38;;;7.80;100.00
71573;BME280;59408;51.032;9.410;2023-02-18T07:07:28;99270.84;;;7.82;100.00
71573;BME280;59408;51.032;9.410;2023-02-18T07:09:55;99256.16;;;7.83;100.00
71573;BME280;59408;51.032;9.410;2023-02-18T07:12:22;99263.03;;;7.89;100.00
71573;BME280;59408;51.032;9.410;2023-02-18T07:14:49;99253.78;;;7.90;100.00
71573;BME280;59408;51.032;9.410;2023-02-18T07:17:15;99253.94;;;7.93;100.00
71573;BME280;59408;51.032;9.410;2023-02-18T07:19:43;99254.72;;;7.94;100.00
71573;BME280;59408;51.032;9.410;2023-02-18T07:22:10;99246.75;;;7.97;100.00
71573;BME280;59408;51.032;9.410;2023-02-18T07:24:36;99266.41;;;7.94;100.00
71573;BME280;59408;51.032;9.410;2023-02-18T07:27:03;99259.06;;;7.95;100.00
71573;BME280;59408;51.032;9.410;2023-02-18T07:29:30;99261.28;;;7.93;100.00
71573;BME280;59408;51.032;9.410;2023-02-18T07:31:56;99263.84;;;7.89;100.00
71573;BME280;59408;51.032;9.410;2023-02-18T07:34:23;99257.59;;;7.89;100.00
71573;BME280;59408;51.032;9.410;2023-02-18T07:36:51;99258.72;;;7.88;100.00
71573;BME280;59408;51.032;9.410;2023-02-18T07:39:17;99257.59;;;7.89;100.00
71573;BME280;59408;51.032;9.410;2023-02-18T07:41:44;99250.25;;;7.89;100.00
71573;BME280;59408;51.032;9.410;2023-02-18T07:44:10;99263.53;;;7.91;100.00
71573;BME280;59408;51.032;9.410;2023-02-18T07:46:51;99257.44;;;7.94;100.00
71573;BME280;59408;51.032;9.410;2023-02-18T07:49:18;99253.31;;;7.96;100.00
71573;BME280;59408;51.032;9.410;2023-02-18T07:51:46;99271.03;;;7.94;100.00
71573;BME280;59408;51.032;9.410;2023-02-18T07:54:14;99278.38;;;7.93;100.00
71573;BME280;59408;51.032;9.410;2023-02-18T07:56:41;99268.97;;;7.91;100.00
71573;BME280;59408;51.032;9.410;2023-02-18T07:59:08;99270.88;;;7.90;100.00
71573;BME280;59408;51.032;9.410;2023-02-18T08:01:34;99260.00;;;7.90;100.00
71573;BME280;59408;51.032;9.410;2023-02-18T08:04:01;99265.75;;;7.89;100.00
71573;BME280;59408;51.032;9.410;2023-02-18T08:06:32;99264.78;;;7.85;100.00
71573;BME280;59408;51.032;9.410;2023-02-18T08:08:59;99269.56;;;7.79;100.00
71573;BME280;59408;51.032;9.410;2023-02-18T08:11:27;99254.88;;;7.80;100.00
71573;BME280;59408;51.032;9.410;2023-02-18T08:13:53;99253.25;;;7.79;100.00
71573;BME280;59408;51.032;9.410;2023-02-18T08:16:21;99260.78;;;7.82;100.00
71573;BME280;59408;51.032;9.410;2023-02-18T08:18:48;99245.31;;;7.83;100.00
71573;BME280;59408;51.032;9.410;2023-02-18T08:21:17;99242.09;;;7.81;100.00
71573;BME280;59408;51.032;9.410;2023-02-18T08:23:44;99246.41;;;7.82;100.00
71573;BME280;59408;51.032;9.410;2023-02-18T08:26:11;99256.16;;;7.83;100.00
71573;BME280;59408;51.032;9.410;2023-02-18T08:28:40;99248.78;;;7.83;100.00
71573;BME280;59408;51.032;9.410;2023-02-18T08:31:06;99246.06;;;7.83;100.00
71573;BME280;59408;51.032;9.410;2023-02-18T08:33:33;99249.59;;;7.84;100.00
71573;BME280;59408;51.032;9.410;2023-02-18T08:36:00;99249.59;;;7.84;100.00
71573;BME280;59408;51.032;9.410;2023-02-18T08:38:26;99260.94;;;7.86;100.00
71573;BME280;59408;51.032;9.410;2023-02-18T08:41:01;99238.09;;;7.87;100.00
71573;BME280;59408;51.032;9.410;2023-02-18T08:43:28;99234.78;;;7.90;100.00
71573;BME280;59408;51.032;9.410;2023-02-18T08:45:56;99225.50;;;7.91;100.00
71573;BME280;59408;51.032;9.410;2023-02-18T08:48:23;99229.81;;;7.92;100.00
71573;BME280;59408;51.032;9.410;2023-02-18T08:50:50;99237.19;;;7.91;100.00
71573;BME280;59408;51.032;9.410;2023-02-18T08:53:17;99244.97;;;7.93;100.00
71573;BME280;59408;51.032;9.410;2023-02-18T08:55:44;99237.00;;;7.96;100.00
71573;BME280;59408;51.032;9.410;2023-02-18T08:58:11;99255.41;;;7.99;100.00
71573;BME280;59408;51.032;9.410;2023-02-18T09:00:38;99249.66;;;8.01;100.00
71573;BME280;59408;51.032;9.410;2023-02-18T09:03:06;99252.84;;;8.03;100.00
71573;BME280;59408;51.032;9.410;2023-02-18T09:05:33;99250.78;;;8.09;100.00
71573;BME280;59408;51.032;9.410;2023-02-18T09:08:00;99247.75;;;8.10;100.00
71573;BME280;59408;51.032;9.410;2023-02-18T09:10:26;99247.28;;;8.17;100.00
71573;BME280;59408;51.032;9.410;2023-02-18T09:12:53;99238.16;;;8.21;100.00
71573;BME280;59408;51.032;9.410;2023-02-18T09:15:19;99230.38;;;8.28;100.00
71573;BME280;59408;51.032;9.410;2023-02-18T09:17:46;99237.53;;;8.33;100.00
71573;BME280;59408;51.032;9.410;2023-02-18T09:20:14;99243.78;;;8.33;100.00
71573;BME280;59408;51.032;9.410;2023-02-18T09:22:41;99245.69;;;8.33;100.00
71573;BME280;59408;51.032;9.410;2023-02-18T09:25:07;99228.44;;;8.37;100.00
71573;BME280;59408;51.032;9.410;2023-02-18T09:27:34;99235.94;;;8.41;100.00
71573;BME280;59408;51.032;9.410;2023-02-18T09:30:01;99242.50;;;8.48;100.00
71573;BME280;59408;51.032;9.410;2023-02-18T09:32:28;99245.69;;;8.50;100.00
71573;BME280;59408;51.032;9.410;2023-02-18T09:35:00;99247.63;;;8.50;100.00
71573;BME280;59408;51.032;9.410;2023-02-18T09:37:28;99242.34;;;8.45;100.00
71573;BME280;59408;51.032;9.410;2023-02-18T09:39:55;99251.13;;;8.42;100.00
71573;BME280;59408;51.032;9.410;2023-02-18T09:42:27;99239.16;;;8.43;100.00
71573;BME280;59408;51.032;9.410;2023-02-18T09:44:57;99231.78;;;8.43;100.00
71573;BME280;59408;51.032;9.410;2023-02-18T09:47:30;99238.84;;;8.44;100.00
71573;BME280;59408;51.032;9.410;2023-02-18T09:50:03;99247.13;;;8.48;100.00
71573;BME280;59408;51.032;9.410;2023-02-18T09:52:35;99239.63;;;8.53;100.00
71573;BME280;59408;51.032;9.410;2023-02-18T09:55:14;99229.25;;;8.55;100.00
71573;BME280;59408;51.032;9.410;2023-02-18T09:57:43;99229.38;;;8.59;100.00
71573;BME280;59408;51.032;9.410;2023-02-18T10:00:13;99234.34;;;8.57;100.00
71573;BME280;59408;51.032;9.410;2023-02-18T10:02:54;99231.97;;;8.55;100.00
71573;BME280;59408;51.032;9.410;2023-02-18T10:05:22;99231.47;;;8.53;100.00
71573;BME280;59408;51.032;9.410;2023-02-18T10:07:53;99217.06;;;8.61;100.00
71573;BME280;59408;51.032;9.410;2023-02-18T10:10:30;99236.91;;;8.70;99.43
71573;BME280;59408;51.032;9.410;2023-02-18T10:12:58;99228.25;;;8.77;98.64
71573;BME280;59408;51.032;9.410;2023-02-18T10:15:28;99236.72;;;8.84;98.61
71573;BME280;59408;51.032;9.410;2023-02-18T10:17:56;99224.69;;;8.94;97.67
71573;BME280;59408;51.032;9.410;2023-02-18T10:20:25;99226.63;;;8.93;97.26
71573;BME280;59408;51.032;9.410;2023-02-18T10:22:57;99228.41;;;8.89;97.60
71573;BME280;59408;51.032;9.410;2023-02-18T10:25:26;99224.69;;;8.94;95.57
71573;BME280;59408;51.032;9.410;2023-02-18T10:27:53;99241.69;;;8.91;94.78
71573;BME280;59408;51.032;9.410;2023-02-18T10:30:23;99225.38;;;8.82;94.08
71573;BME280;59408;51.032;9.410;2023-02-18T10:32:58;99233.06;;;8.80;95.47
71573;BME280;59408;51.032;9.410;2023-02-18T10:35:30;99230.97;;;8.77;96.26
71573;BME280;59408;51.032;9.410;2023-02-18T10:38:06;99237.06;;;8.83;94.86
71573;BME280;59408;51.032;9.410;2023-02-18T10:40:45;99220.72;;;8.91;93.34
71573;BME280;59408;51.032;9.410;2023-02-18T10:43:18;99223.25;;;8.96;93.28
71573;BME280;59408;51.032;9.410;2023-02-18T10:45:52;99226.47;;;8.98;92.87
71573;BME280;59408;51.032;9.410;2023-02-18T10:48:37;99213.16;;;9.05;92.69
71573;BME280;59408;51.032;9.410;2023-02-18T10:51:13;99210.13;;;9.07;91.97
71573;BME280;59408;51.032;9.410;2023-02-18T10:53:44;99214.75;;;9.06;90.35
71573;BME280;59408;51.032;9.410;2023-02-18T10:56:32;99210.28;;;9.02;90.07
71573;BME280;59408;51.032;9.410;2023-02-18T10:59:01;99212.22;;;9.01;89.35
71573;BME280;59408;51.032;9.410;2023-02-18T11:01:30;99202.63;;;8.95;88.95
71573;BME280;59408;51.032;9.410;2023-02-18T11:04:09;99204.53;;;8.95;87.53
71573;BME280;59408;51.032;9.410;2023-02-18T11:06:39;99206.78;;;8.93;87.86
71573;BME280;59408;51.032;9.410;2023-02-18T11:09:24;99208.84;;;8.96;86.76
71573;BME280;59408;51.032;9.410;2023-02-18T11:11:58;99226.16;;;9.00;85.22
71573;BME280;59408;51.032;9.410;2023-02-18T11:14:39;99219.91;;;8.99;83.94
71573;BME280;59408;51.032;9.410;2023-02-18T11:17:16;99235.13;;;8.92;83.47
71573;BME280;59408;51.032;9.410;2023-02-18T11:19:51;99194.97;;;8.80;83.65
71573;BME280;59408;51.032;9.410;2023-02-18T11:22:20;99174.84;;;8.72;85.27
71573;BME280;59408;51.032;9.410;2023-02-18T11:24:53;99183.00;;;8.64;85.48
71573;BME280;59408;51.032;9.410;2023-02-18T11:27:23;99222.19;;;8.63;85.12
71573;BME280;59408;51.032;9.410;2023-02-18T11:29:53;99205.22;;;8.57;84.59
71573;BME280;59408;51.032;9.410;2023-02-18T11:32:21;99189.59;;;8.54;85.51
71573;BME280;59408;51.032;9.410;2023-02-18T11:34:51;99197.56;;;8.51;85.35
71573;BME280;59408;51.032;9.410;2023-02-18T11:37:19;99201.72;;;8.48;86.20
71573;BME280;59408;51.032;9.410;2023-02-18T11:39:50;99201.91;;;8.43;86.94
71573;BME280;59408;51.032;9.410;2023-02-18T11:42:19;99213.41;;;8.40;86.94
71573;BME280;59408;51.032;9.410;2023-02-18T11:44:50;99208.28;;;8.38;87.38
71573;BME280;59408;51.032;9.410;2023-02-18T11:47:23;99242.03;;;8.37;87.30
71573;BME280;59408;51.032;9.410;2023-02-18T11:50:09;99188.44;;;8.38;86.86
71573;BME280;59408;51.032;9.410;2023-02-18T11:52:41;99204.31;;;8.36;86.99
71573;BME280;59408;51.032;9.410;2023-02-18T11:55:14;99203.50;;;8.35;87.08
71573;BME280;59408;51.032;9.410;2023-02-18T11:57:44;99201.09;;;8.34;87.39
71573;BME280;59408;51.032;9.410;2023-02-18T12:00:16;99205.56;;;8.30;88.15
71573;BME280;59408;51.032;9.410;2023-02-18T12:02:46;99205.91;;;8.28;88.18
71573;BME280;59408;51.032;9.410;2023-02-18T12:05:15;99190.06;;;8.30;88.22
71573;BME280;59408;51.032;9.410;2023-02-18T12:07:47;99208.63;;;8.28;88.57
71573;BME280;59408;51.032;9.410;2023-02-18T12:10:21;99202.69;;;8.26;88.53
71573;BME280;59408;51.032;9.410;2023-02-18T12:12:54;99211.00;;;8.30;88.35
71573;BME280;59408;51.032;9.410;2023-02-18T12:15:28;99219.50;;;8.28;88.75
71573;BME280;59408;51.032;9.410;2023-02-18T12:18:10;99217.09;;;8.27;89.10
71573;BME280;59408;51.032;9.410;2023-02-18T12:20:50;99207.97;;;8.23;90.21
71573;BME280;59408;51.032;9.410;2023-02-18T12:23:24;99205.41;;;8.26;89.74
71573;BME280;59408;51.032;9.410;2023-02-18T12:26:00;99210.84;;;8.26;89.80
71573;BME280;59408;51.032;9.410;2023-02-18T12:31:34;99216.59;;;8.33;90.23
71573;BME280;59408;51.032;9.410;2023-02-18T12:34:16;99212.44;;;8.36;90.25
71573;BME280;59408;51.032;9.410;2023-02-18T12:36:53;99193.56;;;8.31;90.58
71573;BME280;59408;51.032;9.410;2023-02-18T12:39:33;99198.69;;;8.32;90.76
71573;BME280;59408;51.032;9.410;2023-02-18T12:42:13;99202.84;;;8.38;89.99
71573;BME280;59408;51.032;9.410;2023-02-18T12:44:57;99199.50;;;8.33;90.98
71573;BME280;59408;51.032;9.410;2023-02-18T12:47:33;99192.78;;;8.30;91.35
71573;BME280;59408;51.032;9.410;2023-02-18T12:50:30;99200.59;;;8.32;90.32
71573;BME280;59408;51.032;9.410;2023-02-18T12:53:11;99212.78;;;8.34;90.19
71573;BME280;59408;51.032;9.410;2023-02-18T12:55:54;99198.38;;;8.34;90.92
71573;BME280;59408;51.032;9.410;2023-02-18T12:58:36;99195.34;;;8.35;90.75
71573;BME280;59408;51.032;9.410;2023-02-18T13:01:24;99181.44;;;8.37;91.23
71573;BME280;59408;51.032;9.410;2023-02-18T13:07:10;99187.50;;;8.43;91.20
71573;BME280;59408;51.032;9.410;2023-02-18T13:09:51;99182.88;;;8.43;91.56
71573;BME280;59408;51.032;9.410;2023-02-18T13:12:27;99188.78;;;8.45;91.17
71573;BME280;59408;51.032;9.410;2023-02-18T13:15:01;99191.19;;;8.47;90.94
71573;BME280;59408;51.032;9.410;2023-02-18T13:17:33;99183.81;;;8.47;90.78
71573;BME280;59408;51.032;9.410;2023-02-18T13:20:04;99191.50;;;8.45;91.17
71573;BME280;59408;51.032;9.410;2023-02-18T13:22:32;99187.19;;;8.44;90.98
71573;BME280;59408;51.032;9.410;2023-02-18T13:24:59;99197.56;;;8.42;91.68
71573;BME280;59408;51.032;9.410;2023-02-18T13:27:30;99195.47;;;8.39;91.72
71573;BME280;59408;51.032;9.410;2023-02-18T13:30:12;99196.59;;;8.38;92.08
71573;BME280;59408;51.032;9.410;2023-02-18T13:32:49;99189.09;;;8.35;92.08